Historique des mesures à Cassis (13260), France
Quotidien Résumé Avril 9, 2018 Unités:  Métrique    US   Métrique/US
« Précédent (Jour)
Suivant (Jour) »
Quotidien Hebdomadaire Mensuel Annuel Période au choix
  Maximum: Minimum: Moyenne:
Température: TemperatureC °C 13.2 °C 15 °C
Point de rosée: DewpointC °C 7.5 °C 9.3 °C
Humidité: Humidity % 58 % 65 %
Vitesse du vent: 0 km/h 0 km/h 6.6 km/h
Rafales: 0 km/h - -
Vent:- - SE
Pression: PressurehPa hPa 1002.3 hPa -
Précipitations: 0.5 mm    
Historical Graphs
 
 
Mesures pour : Avril 9, 2018
Heure Temperature Point de rosée Pression Vent Vitesse du vent Rafales Humidité Pluie (par heure) Conditions
TemperatureC °C DewpointC °C PressurehPa hPa Calm     Humidity % HourlyPrecipMM mm SoftwareType W/m2
00:10 15.9 °C 7.7 °C 1002.9 hPa NNE 12.2 km/h 12.2 km/h 58 % 0.0 mm open2300-1.11 W/m2
01:10 15.8 °C 7.8 °C 1003.6 hPa ESE 18.7 km/h 27.2 km/h 59 % 0.0 mm open2300-1.11 W/m2
02:10 15.3 °C 7.8 °C 1003.6 hPa ESE 12.2 km/h 21.6 km/h 61 % 0.0 mm open2300-1.11 W/m2
03:10 15.2 °C 7.5 °C 1002.9 hPa SE 4.2 km/h 12.7 km/h 60 % 0.0 mm open2300-1.11 W/m2
04:12 14.9 °C 7.7 °C 1002.3 hPa SE 5.1 km/h 5.1 km/h 62 % 0.0 mm open2300-1.11 W/m2
05:12 14.6 °C 8.1 °C 1002.3 hPa Calm   8.9 km/h 65 % 0.0 mm open2300-1.11 W/m2
06:12 14.1 °C 8.2 °C 1002.3 hPa East 5.1 km/h 15.6 km/h 68 % 0.0 mm open2300-1.11 W/m2
07:12 13.5 °C 8.6 °C 1002.3 hPa WNW 3.4 km/h 5.1 km/h 72 % 0.5 mm open2300-1.11 W/m2
08:12 13.5 °C 8.6 °C 1002.6 hPa SE 19.6 km/h 19.6 km/h 72 % 0.0 mm open2300-1.11 W/m2
09:12 13.6 °C 8.8 °C 1003.3 hPa SSW 4.2 km/h 10.3 km/h 73 % 0.0 mm open2300-1.11 W/m2
10:11 13.2 °C 9.2 °C 1004.3 hPa SSW 5.1 km/h 6.4 km/h 77 % 0.0 mm open2300-1.11 W/m2
11:11 14.4 °C 10.4 °C 1004.3 hPa SSE 4.2 km/h 4.7 km/h 77 % 0.0 mm open2300-1.11 W/m2
12:11 15.8 °C 11.2 °C 1004.6 hPa SE 7.6 km/h 7.6 km/h 74 % 0.0 mm open2300-1.11 W/m2
13:11 18.3 °C 12.5 °C 1004.6 hPa SSE 5.6 km/h 5.6 km/h 69 % 0.0 mm open2300-1.11 W/m2
14:11 19.1 °C 12.6 °C 1004.3 hPa South 5.6 km/h 5.6 km/h 66 % 0.0 mm open2300-1.11 W/m2
15:10 18.9 °C 12.2 °C 1004.6 hPa ESE 9.8 km/h 9.8 km/h 65 % 0.0 mm open2300-1.11 W/m2
16:10 18.3 °C 12.3 °C 1005.0 hPa NNW 6.4 km/h 6.4 km/h 68 % 0.0 mm open2300-1.11 W/m2
17:10 18.1 °C 11.4 °C 1004.6 hPa SE 9.8 km/h 9.8 km/h 65 % 0.0 mm open2300-1.11 W/m2
18:10 17.4 °C 10.5 °C 1004.6 hPa Calm   10.9 km/h 64 % 0.0 mm open2300-1.11 W/m2
19:10 16.6 °C 10.2 °C 1005.0 hPa NE 5.6 km/h 6.4 km/h 66 % 0.0 mm open2300-1.11 W/m2
20:10 15.5 °C 10.1 °C 1005.3 hPa Calm   4.7 km/h 70 % 0.0 mm open2300-1.11 W/m2
21:10 14.9 °C 9.9 °C 1005.3 hPa ESE 8 km/h 8 km/h 72 % 0.0 mm open2300-1.11 W/m2
22:10 14.3 °C 9.3 °C 1005.6 hPa SE 4.2 km/h 4.7 km/h 72 % 0.0 mm open2300-1.11 W/m2
23:10 13.8 °C 9.2 °C 1005.3 hPa East 8.9 km/h 14 km/h 74 % 0.0 mm open2300-1.11 W/m2
Observations météo à CASSIS
WU-History script by Weather Underground - 1 mb